sensor_id;sensor_type;location;lat;lon;timestamp;temperature;humidity
54168;DHT22;68429;50.958;3.592;2024-01-15T00:01:37;2.30;99.90
54168;DHT22;68429;50.958;3.592;2024-01-15T00:04:02;2.30;99.90
54168;DHT22;68429;50.958;3.592;2024-01-15T00:06:28;2.40;99.90
54168;DHT22;68429;50.958;3.592;2024-01-15T00:08:54;2.40;99.90
54168;DHT22;68429;50.958;3.592;2024-01-15T00:11:20;2.40;99.90
54168;DHT22;68429;50.958;3.592;2024-01-15T00:13:45;2.40;99.90
54168;DHT22;68429;50.958;3.592;2024-01-15T00:16:11;2.40;99.90
54168;DHT22;68429;50.958;3.592;2024-01-15T00:18:37;2.50;99.90
54168;DHT22;68429;50.958;3.592;2024-01-15T00:21:03;2.60;99.90
54168;DHT22;68429;50.958;3.592;2024-01-15T00:23:29;2.40;99.90
54168;DHT22;68429;50.958;3.592;2024-01-15T00:25:54;2.50;99.90
54168;DHT22;68429;50.958;3.592;2024-01-15T00:28:20;2.50;99.90
54168;DHT22;68429;50.958;3.592;2024-01-15T00:30:46;2.60;99.90
54168;DHT22;68429;50.958;3.592;2024-01-15T00:33:11;2.70;99.90
54168;DHT22;68429;50.958;3.592;2024-01-15T00:35:38;2.70;99.90
54168;DHT22;68429;50.958;3.592;2024-01-15T00:38:03;2.70;99.90
54168;DHT22;68429;50.958;3.592;2024-01-15T00:40:29;2.90;99.90
54168;DHT22;68429;50.958;3.592;2024-01-15T00:42:54;2.70;99.90
54168;DHT22;68429;50.958;3.592;2024-01-15T00:45:20;2.90;99.90
54168;DHT22;68429;50.958;3.592;2024-01-15T00:47:46;2.80;99.90
54168;DHT22;68429;50.958;3.592;2024-01-15T00:50:11;2.80;99.90
54168;DHT22;68429;50.958;3.592;2024-01-15T00:52:37;3.00;99.90
54168;DHT22;68429;50.958;3.592;2024-01-15T00:55:03;3.00;99.90
54168;DHT22;68429;50.958;3.592;2024-01-15T00:57:29;2.70;99.90
54168;DHT22;68429;50.958;3.592;2024-01-15T00:59:54;2.80;99.90
54168;DHT22;68429;50.958;3.592;2024-01-15T01:02:20;2.70;99.90
54168;DHT22;68429;50.958;3.592;2024-01-15T01:04:46;2.70;99.90
54168;DHT22;68429;50.958;3.592;2024-01-15T01:07:11;2.80;99.90
54168;DHT22;68429;50.958;3.592;2024-01-15T01:09:37;2.70;99.90
54168;DHT22;68429;50.958;3.592;2024-01-15T01:12:03;2.70;99.90
54168;DHT22;68429;50.958;3.592;2024-01-15T01:14:28;2.80;99.90
54168;DHT22;68429;50.958;3.592;2024-01-15T01:16:54;2.80;99.90
54168;DHT22;68429;50.958;3.592;2024-01-15T01:19:20;2.80;99.90
54168;DHT22;68429;50.958;3.592;2024-01-15T01:21:45;2.80;99.90
54168;DHT22;68429;50.958;3.592;2024-01-15T01:24:11;2.80;99.90
54168;DHT22;68429;50.958;3.592;2024-01-15T01:26:36;2.70;99.90
54168;DHT22;68429;50.958;3.592;2024-01-15T01:29:02;2.80;99.90
54168;DHT22;68429;50.958;3.592;2024-01-15T01:31:27;2.60;99.90
54168;DHT22;68429;50.958;3.592;2024-01-15T01:33:53;2.50;99.90
54168;DHT22;68429;50.958;3.592;2024-01-15T01:36:19;2.50;99.90
54168;DHT22;68429;50.958;3.592;2024-01-15T01:38:44;2.50;99.90
54168;DHT22;68429;50.958;3.592;2024-01-15T01:41:10;2.60;99.90
54168;DHT22;68429;50.958;3.592;2024-01-15T01:43:36;2.80;99.90
54168;DHT22;68429;50.958;3.592;2024-01-15T01:46:02;2.60;99.90
54168;DHT22;68429;50.958;3.592;2024-01-15T01:48:29;2.60;99.90
54168;DHT22;68429;50.958;3.592;2024-01-15T01:50:57;2.70;99.90
54168;DHT22;68429;50.958;3.592;2024-01-15T01:53:24;2.70;99.90
54168;DHT22;68429;50.958;3.592;2024-01-15T01:55:50;2.80;99.90
54168;DHT22;68429;50.958;3.592;2024-01-15T01:58:16;2.90;99.90
54168;DHT22;68429;50.958;3.592;2024-01-15T02:00:43;2.70;99.90
54168;DHT22;68429;50.958;3.592;2024-01-15T02:03:09;3.00;99.90
54168;DHT22;68429;50.958;3.592;2024-01-15T02:05:35;2.80;99.90
54168;DHT22;68429;50.958;3.592;2024-01-15T02:08:01;3.00;99.90
54168;DHT22;68429;50.958;3.592;2024-01-15T02:10:27;2.80;99.90
54168;DHT22;68429;50.958;3.592;2024-01-15T02:12:52;2.90;99.90
54168;DHT22;68429;50.958;3.592;2024-01-15T02:15:18;2.90;99.90
54168;DHT22;68429;50.958;3.592;2024-01-15T02:18:04;3.00;99.90
54168;DHT22;68429;50.958;3.592;2024-01-15T02:20:30;3.00;99.90
54168;DHT22;68429;50.958;3.592;2024-01-15T02:25:35;3.10;99.90
54168;DHT22;68429;50.958;3.592;2024-01-15T02:28:02;2.90;99.90
54168;DHT22;68429;50.958;3.592;2024-01-15T02:30:28;3.00;99.90
54168;DHT22;68429;50.958;3.592;2024-01-15T02:32:55;3.00;99.90
54168;DHT22;68429;50.958;3.592;2024-01-15T02:35:21;3.00;99.90
54168;DHT22;68429;50.958;3.592;2024-01-15T02:37:46;3.10;99.90
54168;DHT22;68429;50.958;3.592;2024-01-15T02:40:12;3.20;99.90
54168;DHT22;68429;50.958;3.592;2024-01-15T02:42:37;3.20;99.90
54168;DHT22;68429;50.958;3.592;2024-01-15T02:45:04;3.30;99.90
54168;DHT22;68429;50.958;3.592;2024-01-15T02:47:29;3.20;99.90
54168;DHT22;68429;50.958;3.592;2024-01-15T02:49:55;3.10;99.90
54168;DHT22;68429;50.958;3.592;2024-01-15T02:52:21;3.20;99.90
54168;DHT22;68429;50.958;3.592;2024-01-15T02:54:46;3.20;99.90
54168;DHT22;68429;50.958;3.592;2024-01-15T02:57:12;3.20;99.90
54168;DHT22;68429;50.958;3.592;2024-01-15T02:59:37;3.20;99.90
54168;DHT22;68429;50.958;3.592;2024-01-15T03:02:03;3.10;99.90
54168;DHT22;68429;50.958;3.592;2024-01-15T03:04:29;3.20;99.90
54168;DHT22;68429;50.958;3.592;2024-01-15T03:06:54;3.20;99.90
54168;DHT22;68429;50.958;3.592;2024-01-15T03:09:20;3.40;99.90
54168;DHT22;68429;50.958;3.592;2024-01-15T03:11:45;3.10;99.90
54168;DHT22;68429;50.958;3.592;2024-01-15T03:14:11;3.10;99.90
54168;DHT22;68429;50.958;3.592;2024-01-15T03:16:37;3.20;99.90
54168;DHT22;68429;50.958;3.592;2024-01-15T03:19:02;3.20;99.90
54168;DHT22;68429;50.958;3.592;2024-01-15T03:21:28;3.10;99.90
54168;DHT22;68429;50.958;3.592;2024-01-15T03:23:54;3.20;99.90
54168;DHT22;68429;50.958;3.592;2024-01-15T03:26:19;3.00;99.90
54168;DHT22;68429;50.958;3.592;2024-01-15T03:28:45;2.70;99.90
54168;DHT22;68429;50.958;3.592;2024-01-15T03:31:10;2.50;99.90
54168;DHT22;68429;50.958;3.592;2024-01-15T03:33:36;2.40;99.90
54168;DHT22;68429;50.958;3.592;2024-01-15T03:36:02;2.50;99.90
54168;DHT22;68429;50.958;3.592;2024-01-15T03:38:28;2.30;99.90
54168;DHT22;68429;50.958;3.592;2024-01-15T03:40:54;2.30;99.90
54168;DHT22;68429;50.958;3.592;2024-01-15T03:43:20;2.30;99.90
54168;DHT22;68429;50.958;3.592;2024-01-15T03:45:45;2.20;99.90
54168;DHT22;68429;50.958;3.592;2024-01-15T03:48:11;2.10;99.90
54168;DHT22;68429;50.958;3.592;2024-01-15T03:50:37;2.00;99.90
54168;DHT22;68429;50.958;3.592;2024-01-15T03:53:02;1.80;99.90
54168;DHT22;68429;50.958;3.592;2024-01-15T03:55:28;1.70;99.90
54168;DHT22;68429;50.958;3.592;2024-01-15T03:57:54;1.60;99.90
54168;DHT22;68429;50.958;3.592;2024-01-15T04:00:19;1.60;99.90
54168;DHT22;68429;50.958;3.592;2024-01-15T04:02:45;1.80;99.90
54168;DHT22;68429;50.958;3.592;2024-01-15T04:05:11;1.90;99.90
54168;DHT22;68429;50.958;3.592;2024-01-15T04:07:36;2.10;99.90
54168;DHT22;68429;50.958;3.592;2024-01-15T04:10:02;2.00;99.90
54168;DHT22;68429;50.958;3.592;2024-01-15T04:12:28;2.00;99.90
54168;DHT22;68429;50.958;3.592;2024-01-15T04:14:53;1.90;99.90
54168;DHT22;68429;50.958;3.592;2024-01-15T04:17:19;1.90;99.90
54168;DHT22;68429;50.958;3.592;2024-01-15T04:19:46;1.90;99.90
54168;DHT22;68429;50.958;3.592;2024-01-15T04:22:13;1.80;99.90
54168;DHT22;68429;50.958;3.592;2024-01-15T04:24:39;1.90;99.90
54168;DHT22;68429;50.958;3.592;2024-01-15T04:27:05;1.80;99.90
54168;DHT22;68429;50.958;3.592;2024-01-15T04:29:31;1.90;99.90
54168;DHT22;68429;50.958;3.592;2024-01-15T04:31:57;1.90;99.90
54168;DHT22;68429;50.958;3.592;2024-01-15T04:34:23;1.90;99.90
54168;DHT22;68429;50.958;3.592;2024-01-15T04:36:48;1.90;99.90
54168;DHT22;68429;50.958;3.592;2024-01-15T04:39:14;2.10;99.90
54168;DHT22;68429;50.958;3.592;2024-01-15T04:41:39;2.00;99.90
54168;DHT22;68429;50.958;3.592;2024-01-15T04:44:05;2.00;99.90
54168;DHT22;68429;50.958;3.592;2024-01-15T04:46:31;2.00;99.90
54168;DHT22;68429;50.958;3.592;2024-01-15T04:48:56;2.00;99.90
54168;DHT22;68429;50.958;3.592;2024-01-15T04:51:22;1.90;99.90
54168;DHT22;68429;50.958;3.592;2024-01-15T04:53:48;2.10;99.90
54168;DHT22;68429;50.958;3.592;2024-01-15T04:56:13;2.30;99.90
54168;DHT22;68429;50.958;3.592;2024-01-15T04:58:39;2.40;99.90
54168;DHT22;68429;50.958;3.592;2024-01-15T05:01:04;2.50;99.90
54168;DHT22;68429;50.958;3.592;2024-01-15T05:03:30;2.40;99.90
54168;DHT22;68429;50.958;3.592;2024-01-15T05:05:56;2.30;99.90
54168;DHT22;68429;50.958;3.592;2024-01-15T05:08:21;2.20;99.90
54168;DHT22;68429;50.958;3.592;2024-01-15T05:10:47;2.30;99.90
54168;DHT22;68429;50.958;3.592;2024-01-15T05:13:13;2.30;99.90
54168;DHT22;68429;50.958;3.592;2024-01-15T05:15:39;2.00;99.90
54168;DHT22;68429;50.958;3.592;2024-01-15T05:18:04;2.00;99.90
54168;DHT22;68429;50.958;3.592;2024-01-15T05:20:30;2.00;99.90
54168;DHT22;68429;50.958;3.592;2024-01-15T05:22:56;2.10;99.90
54168;DHT22;68429;50.958;3.592;2024-01-15T05:25:22;2.10;99.90
54168;DHT22;68429;50.958;3.592;2024-01-15T05:27:48;2.00;99.90
54168;DHT22;68429;50.958;3.592;2024-01-15T05:30:15;2.00;99.90
54168;DHT22;68429;50.958;3.592;2024-01-15T05:32:41;2.00;99.90
54168;DHT22;68429;50.958;3.592;2024-01-15T05:35:07;2.00;99.90
54168;DHT22;68429;50.958;3.592;2024-01-15T05:37:33;2.10;99.90
54168;DHT22;68429;50.958;3.592;2024-01-15T05:39:58;2.20;99.90
54168;DHT22;68429;50.958;3.592;2024-01-15T05:42:24;2.30;99.90
54168;DHT22;68429;50.958;3.592;2024-01-15T05:44:50;2.20;99.90
54168;DHT22;68429;50.958;3.592;2024-01-15T05:47:15;2.30;99.90
54168;DHT22;68429;50.958;3.592;2024-01-15T05:49:41;2.10;99.90
54168;DHT22;68429;50.958;3.592;2024-01-15T05:52:07;2.10;99.90
54168;DHT22;68429;50.958;3.592;2024-01-15T05:54:32;2.00;99.90
54168;DHT22;68429;50.958;3.592;2024-01-15T05:56:58;2.10;99.90
54168;DHT22;68429;50.958;3.592;2024-01-15T05:59:23;2.20;99.90
54168;DHT22;68429;50.958;3.592;2024-01-15T06:01:49;2.20;99.90
54168;DHT22;68429;50.958;3.592;2024-01-15T06:04:15;2.10;99.90
54168;DHT22;68429;50.958;3.592;2024-01-15T06:06:40;2.00;99.90
54168;DHT22;68429;50.958;3.592;2024-01-15T06:09:06;1.90;99.90
54168;DHT22;68429;50.958;3.592;2024-01-15T06:11:32;2.00;99.90
54168;DHT22;68429;50.958;3.592;2024-01-15T06:13:58;2.00;99.90
54168;DHT22;68429;50.958;3.592;2024-01-15T06:16:26;1.90;99.90
54168;DHT22;68429;50.958;3.592;2024-01-15T06:18:51;1.90;99.90
54168;DHT22;68429;50.958;3.592;2024-01-15T06:21:17;1.90;99.90
54168;DHT22;68429;50.958;3.592;2024-01-15T06:23:43;1.80;99.90
54168;DHT22;68429;50.958;3.592;2024-01-15T06:26:11;1.60;99.90
54168;DHT22;68429;50.958;3.592;2024-01-15T06:28:36;1.50;99.90
54168;DHT22;68429;50.958;3.592;2024-01-15T06:31:02;1.50;99.90
54168;DHT22;68429;50.958;3.592;2024-01-15T06:33:28;1.60;99.90
54168;DHT22;68429;50.958;3.592;2024-01-15T06:35:54;1.70;99.90
54168;DHT22;68429;50.958;3.592;2024-01-15T06:38:19;1.50;99.90
54168;DHT22;68429;50.958;3.592;2024-01-15T06:40:45;1.40;99.90
54168;DHT22;68429;50.958;3.592;2024-01-15T06:43:13;1.50;99.90
54168;DHT22;68429;50.958;3.592;2024-01-15T06:45:38;1.50;99.90
54168;DHT22;68429;50.958;3.592;2024-01-15T06:48:04;1.60;99.90
54168;DHT22;68429;50.958;3.592;2024-01-15T06:50:30;1.40;99.90
54168;DHT22;68429;50.958;3.592;2024-01-15T06:52:56;1.40;99.90
54168;DHT22;68429;50.958;3.592;2024-01-15T06:55:21;1.40;99.90
54168;DHT22;68429;50.958;3.592;2024-01-15T06:57:47;1.40;99.90
54168;DHT22;68429;50.958;3.592;2024-01-15T07:00:13;1.30;99.90
54168;DHT22;68429;50.958;3.592;2024-01-15T07:02:39;1.30;99.90
54168;DHT22;68429;50.958;3.592;2024-01-15T07:05:04;1.40;99.90
54168;DHT22;68429;50.958;3.592;2024-01-15T07:07:33;1.20;99.90
54168;DHT22;68429;50.958;3.592;2024-01-15T07:09:59;1.30;99.90
54168;DHT22;68429;50.958;3.592;2024-01-15T07:12:25;1.30;99.90
54168;DHT22;68429;50.958;3.592;2024-01-15T07:14:51;1.20;99.90
54168;DHT22;68429;50.958;3.592;2024-01-15T07:17:16;1.30;99.90
54168;DHT22;68429;50.958;3.592;2024-01-15T07:19:42;1.20;99.90
54168;DHT22;68429;50.958;3.592;2024-01-15T07:22:07;1.20;99.90
54168;DHT22;68429;50.958;3.592;2024-01-15T07:24:33;1.30;99.90
54168;DHT22;68429;50.958;3.592;2024-01-15T07:27:00;1.40;99.90
54168;DHT22;68429;50.958;3.592;2024-01-15T07:29:26;1.40;99.90
54168;DHT22;68429;50.958;3.592;2024-01-15T07:31:51;1.40;99.90
54168;DHT22;68429;50.958;3.592;2024-01-15T07:34:17;1.30;99.90
54168;DHT22;68429;50.958;3.592;2024-01-15T07:36:46;1.20;99.90
54168;DHT22;68429;50.958;3.592;2024-01-15T07:39:12;1.20;99.90
54168;DHT22;68429;50.958;3.592;2024-01-15T07:41:38;1.10;99.90
54168;DHT22;68429;50.958;3.592;2024-01-15T07:44:03;1.10;99.90
54168;DHT22;68429;50.958;3.592;2024-01-15T07:46:29;1.20;99.90
54168;DHT22;68429;50.958;3.592;2024-01-15T07:48:55;1.20;99.90
54168;DHT22;68429;50.958;3.592;2024-01-15T07:51:26;1.20;99.90
54168;DHT22;68429;50.958;3.592;2024-01-15T07:53:53;1.20;99.90
54168;DHT22;68429;50.958;3.592;2024-01-15T07:56:20;1.30;99.90
54168;DHT22;68429;50.958;3.592;2024-01-15T07:58:46;1.20;99.90
54168;DHT22;68429;50.958;3.592;2024-01-15T08:01:12;1.10;99.90
54168;DHT22;68429;50.958;3.592;2024-01-15T08:03:38;1.10;99.90
54168;DHT22;68429;50.958;3.592;2024-01-15T08:06:05;1.20;99.90
54168;DHT22;68429;50.958;3.592;2024-01-15T08:08:31;1.30;99.90
54168;DHT22;68429;50.958;3.592;2024-01-15T08:10:56;1.30;99.90
54168;DHT22;68429;50.958;3.592;2024-01-15T08:13:22;1.50;99.90
54168;DHT22;68429;50.958;3.592;2024-01-15T08:15:47;1.80;99.90
54168;DHT22;68429;50.958;3.592;2024-01-15T08:18:13;1.70;99.90
54168;DHT22;68429;50.958;3.592;2024-01-15T08:20:39;1.60;99.90
54168;DHT22;68429;50.958;3.592;2024-01-15T08:23:05;1.80;99.90
54168;DHT22;68429;50.958;3.592;2024-01-15T08:25:31;2.00;99.90
54168;DHT22;68429;50.958;3.592;2024-01-15T08:27:57;2.40;99.90
54168;DHT22;68429;50.958;3.592;2024-01-15T08:30:23;2.40;99.90
54168;DHT22;68429;50.958;3.592;2024-01-15T08:32:56;2.80;99.90
54168;DHT22;68429;50.958;3.592;2024-01-15T08:35:22;3.20;99.90
54168;DHT22;68429;50.958;3.592;2024-01-15T08:37:54;3.60;99.90
54168;DHT22;68429;50.958;3.592;2024-01-15T08:40:20;3.40;99.90
54168;DHT22;68429;50.958;3.592;2024-01-15T08:42:45;3.00;99.90
54168;DHT22;68429;50.958;3.592;2024-01-15T08:45:11;2.80;99.90
54168;DHT22;68429;50.958;3.592;2024-01-15T08:47:37;3.30;99.90
54168;DHT22;68429;50.958;3.592;2024-01-15T08:50:04;3.90;99.90
54168;DHT22;68429;50.958;3.592;2024-01-15T08:52:30;4.60;99.90
54168;DHT22;68429;50.958;3.592;2024-01-15T08:54:57;5.20;99.90
54168;DHT22;68429;50.958;3.592;2024-01-15T08:57:22;5.30;99.90
54168;DHT22;68429;50.958;3.592;2024-01-15T08:59:48;6.00;99.90
54168;DHT22;68429;50.958;3.592;2024-01-15T09:02:14;6.10;99.90
54168;DHT22;68429;50.958;3.592;2024-01-15T09:04:41;6.00;99.90
54168;DHT22;68429;50.958;3.592;2024-01-15T09:07:07;6.20;99.90
54168;DHT22;68429;50.958;3.592;2024-01-15T09:09:33;6.60;99.90
54168;DHT22;68429;50.958;3.592;2024-01-15T09:11:59;6.90;99.90
54168;DHT22;68429;50.958;3.592;2024-01-15T09:14:25;7.10;99.90
54168;DHT22;68429;50.958;3.592;2024-01-15T09:16:52;7.00;99.90
54168;DHT22;68429;50.958;3.592;2024-01-15T09:19:18;7.20;99.90
54168;DHT22;68429;50.958;3.592;2024-01-15T09:21:44;7.50;99.90
54168;DHT22;68429;50.958;3.592;2024-01-15T09:24:09;7.60;99.90
54168;DHT22;68429;50.958;3.592;2024-01-15T09:26:35;7.40;99.90
54168;DHT22;68429;50.958;3.592;2024-01-15T09:29:01;7.50;99.90
54168;DHT22;68429;50.958;3.592;2024-01-15T09:31:26;7.10;99.90
54168;DHT22;68429;50.958;3.592;2024-01-15T09:33:52;5.80;99.90
54168;DHT22;68429;50.958;3.592;2024-01-15T09:36:22;4.90;99.90
54168;DHT22;68429;50.958;3.592;2024-01-15T09:38:48;4.30;99.90
54168;DHT22;68429;50.958;3.592;2024-01-15T09:41:14;4.70;99.90
54168;DHT22;68429;50.958;3.592;2024-01-15T09:43:40;5.30;99.90
54168;DHT22;68429;50.958;3.592;2024-01-15T09:46:06;6.20;99.90
54168;DHT22;68429;50.958;3.592;2024-01-15T09:48:32;6.70;99.90
54168;DHT22;68429;50.958;3.592;2024-01-15T09:51:01;7.70;99.90
54168;DHT22;68429;50.958;3.592;2024-01-15T09:53:27;7.10;99.90
54168;DHT22;68429;50.958;3.592;2024-01-15T09:55:53;6.20;99.90
54168;DHT22;68429;50.958;3.592;2024-01-15T09:58:18;5.80;99.90
54168;DHT22;68429;50.958;3.592;2024-01-15T10:00:45;6.70;99.90
54168;DHT22;68429;50.958;3.592;2024-01-15T10:03:13;6.60;99.90
54168;DHT22;68429;50.958;3.592;2024-01-15T10:05:39;5.80;99.90
54168;DHT22;68429;50.958;3.592;2024-01-15T10:08:05;5.90;99.90
54168;DHT22;68429;50.958;3.592;2024-01-15T10:10:31;6.70;99.90
54168;DHT22;68429;50.958;3.592;2024-01-15T10:12:58;8.00;99.90
54168;DHT22;68429;50.958;3.592;2024-01-15T10:15:28;7.80;99.90
54168;DHT22;68429;50.958;3.592;2024-01-15T10:17:54;8.50;99.90
54168;DHT22;68429;50.958;3.592;2024-01-15T10:20:20;8.40;99.90
54168;DHT22;68429;50.958;3.592;2024-01-15T10:22:48;8.80;99.90
54168;DHT22;68429;50.958;3.592;2024-01-15T10:25:14;9.40;99.80
54168;DHT22;68429;50.958;3.592;2024-01-15T10:27:43;9.70;98.60
54168;DHT22;68429;50.958;3.592;2024-01-15T10:30:10;9.50;99.20
54168;DHT22;68429;50.958;3.592;2024-01-15T10:32:36;9.90;98.20
54168;DHT22;68429;50.958;3.592;2024-01-15T10:35:02;9.50;99.00
54168;DHT22;68429;50.958;3.592;2024-01-15T10:37:33;9.00;99.00
54168;DHT22;68429;50.958;3.592;2024-01-15T10:40:00;8.70;99.70
54168;DHT22;68429;50.958;3.592;2024-01-15T10:42:26;8.80;99.90
54168;DHT22;68429;50.958;3.592;2024-01-15T10:44:52;9.70;99.60
54168;DHT22;68429;50.958;3.592;2024-01-15T10:47:18;9.10;99.20
54168;DHT22;68429;50.958;3.592;2024-01-15T10:49:45;8.10;99.90
54168;DHT22;68429;50.958;3.592;2024-01-15T10:52:11;6.80;99.90
54168;DHT22;68429;50.958;3.592;2024-01-15T10:54:37;5.80;99.90
54168;DHT22;68429;50.958;3.592;2024-01-15T10:57:04;6.40;99.90
54168;DHT22;68429;50.958;3.592;2024-01-15T10:59:31;7.50;99.90
54168;DHT22;68429;50.958;3.592;2024-01-15T11:01:58;8.30;99.90
54168;DHT22;68429;50.958;3.592;2024-01-15T11:04:25;8.70;99.90
54168;DHT22;68429;50.958;3.592;2024-01-15T11:06:54;9.30;98.70
54168;DHT22;68429;50.958;3.592;2024-01-15T11:09:21;9.80;98.30
54168;DHT22;68429;50.958;3.592;2024-01-15T11:11:47;10.40;97.50
54168;DHT22;68429;50.958;3.592;2024-01-15T11:15:00;10.00;97.90
54168;DHT22;68429;50.958;3.592;2024-01-15T11:17:20;8.40;99.10
54168;DHT22;68429;50.958;3.592;2024-01-15T11:19:48;7.10;99.90
54168;DHT22;68429;50.958;3.592;2024-01-15T11:25:22;6.00;99.90
54168;DHT22;68429;50.958;3.592;2024-01-15T11:27:52;5.60;99.90
54168;DHT22;68429;50.958;3.592;2024-01-15T11:30:19;5.50;99.90
54168;DHT22;68429;50.958;3.592;2024-01-15T11:32:48;5.50;99.90
54168;DHT22;68429;50.958;3.592;2024-01-15T11:35:14;5.50;99.90
54168;DHT22;68429;50.958;3.592;2024-01-15T11:40:23;6.00;99.90
54168;DHT22;68429;50.958;3.592;2024-01-15T11:42:49;5.70;99.90
54168;DHT22;68429;50.958;3.592;2024-01-15T11:45:21;5.20;99.90
54168;DHT22;68429;50.958;3.592;2024-01-15T11:50:35;5.00;99.90
54168;DHT22;68429;50.958;3.592;2024-01-15T11:53:08;5.00;99.90
54168;DHT22;68429;50.958;3.592;2024-01-15T11:55:39;4.90;99.90
54168;DHT22;68429;50.958;3.592;2024-01-15T11:58:09;4.80;99.90
54168;DHT22;68429;50.958;3.592;2024-01-15T12:00:43;4.80;99.90
54168;DHT22;68429;50.958;3.592;2024-01-15T12:03:09;4.90;99.90
54168;DHT22;68429;50.958;3.592;2024-01-15T12:05:37;4.90;99.90
54168;DHT22;68429;50.958;3.592;2024-01-15T12:08:03;4.80;99.90
54168;DHT22;68429;50.958;3.592;2024-01-15T12:10:36;4.60;99.90
54168;DHT22;68429;50.958;3.592;2024-01-15T12:13:14;4.60;99.90
54168;DHT22;68429;50.958;3.592;2024-01-15T12:15:41;4.60;99.90
54168;DHT22;68429;50.958;3.592;2024-01-15T12:18:09;4.60;99.90
54168;DHT22;68429;50.958;3.592;2024-01-15T12:20:35;4.80;99.90
54168;DHT22;68429;50.958;3.592;2024-01-15T12:23:01;4.60;99.90
54168;DHT22;68429;50.958;3.592;2024-01-15T12:25:30;4.70;99.90
54168;DHT22;68429;50.958;3.592;2024-01-15T12:27:56;4.60;99.90
54168;DHT22;68429;50.958;3.592;2024-01-15T12:30:22;4.60;99.90
54168;DHT22;68429;50.958;3.592;2024-01-15T12:32:48;4.50;99.90
54168;DHT22;68429;50.958;3.592;2024-01-15T12:35:14;4.40;99.90
54168;DHT22;68429;50.958;3.592;2024-01-15T12:37:41;4.50;99.90
54168;DHT22;68429;50.958;3.592;2024-01-15T12:40:08;4.30;99.90
54168;DHT22;68429;50.958;3.592;2024-01-15T12:42:44;4.30;99.90
54168;DHT22;68429;50.958;3.592;2024-01-15T12:45:10;4.20;99.90
54168;DHT22;68429;50.958;3.592;2024-01-15T12:47:37;4.10;99.90
54168;DHT22;68429;50.958;3.592;2024-01-15T12:50:06;4.20;99.90
54168;DHT22;68429;50.958;3.592;2024-01-15T12:52:33;4.40;99.90
54168;DHT22;68429;50.958;3.592;2024-01-15T12:54:58;4.40;99.90
54168;DHT22;68429;50.958;3.592;2024-01-15T12:57:24;4.60;99.90
54168;DHT22;68429;50.958;3.592;2024-01-15T12:59:49;4.70;99.90
54168;DHT22;68429;50.958;3.592;2024-01-15T13:02:16;5.10;99.90
54168;DHT22;68429;50.958;3.592;2024-01-15T13:04:42;5.50;99.90
54168;DHT22;68429;50.958;3.592;2024-01-15T13:07:08;6.70;99.90
54168;DHT22;68429;50.958;3.592;2024-01-15T13:09:35;6.30;99.90
54168;DHT22;68429;50.958;3.592;2024-01-15T13:12:02;6.00;99.90
54168;DHT22;68429;50.958;3.592;2024-01-15T13:14:28;6.10;99.90
54168;DHT22;68429;50.958;3.592;2024-01-15T13:16:54;7.40;99.90
54168;DHT22;68429;50.958;3.592;2024-01-15T13:19:20;6.70;99.90
54168;DHT22;68429;50.958;3.592;2024-01-15T13:21:47;7.30;99.90
54168;DHT22;68429;50.958;3.592;2024-01-15T13:24:12;6.90;99.90
54168;DHT22;68429;50.958;3.592;2024-01-15T13:26:39;6.30;99.90
54168;DHT22;68429;50.958;3.592;2024-01-15T13:29:05;5.90;99.90
54168;DHT22;68429;50.958;3.592;2024-01-15T13:31:32;5.60;99.90
54168;DHT22;68429;50.958;3.592;2024-01-15T13:33:58;5.30;99.90
54168;DHT22;68429;50.958;3.592;2024-01-15T13:36:25;4.90;99.90
54168;DHT22;68429;50.958;3.592;2024-01-15T13:38:51;4.70;99.90
54168;DHT22;68429;50.958;3.592;2024-01-15T13:41:18;4.50;99.90
54168;DHT22;68429;50.958;3.592;2024-01-15T13:43:54;4.50;99.90
54168;DHT22;68429;50.958;3.592;2024-01-15T13:46:23;4.50;99.90
54168;DHT22;68429;50.958;3.592;2024-01-15T13:48:49;4.60;99.90
54168;DHT22;68429;50.958;3.592;2024-01-15T13:51:15;4.50;99.90
54168;DHT22;68429;50.958;3.592;2024-01-15T13:53:40;4.40;99.90
54168;DHT22;68429;50.958;3.592;2024-01-15T13:56:07;4.40;99.90
54168;DHT22;68429;50.958;3.592;2024-01-15T13:58:33;4.50;99.90
54168;DHT22;68429;50.958;3.592;2024-01-15T14:00:59;5.00;99.90
54168;DHT22;68429;50.958;3.592;2024-01-15T14:03:25;4.80;99.90
54168;DHT22;68429;50.958;3.592;2024-01-15T14:05:51;4.60;99.90
54168;DHT22;68429;50.958;3.592;2024-01-15T14:08:17;4.00;99.90
54168;DHT22;68429;50.958;3.592;2024-01-15T14:10:43;4.40;99.90
54168;DHT22;68429;50.958;3.592;2024-01-15T14:13:09;4.60;99.90
54168;DHT22;68429;50.958;3.592;2024-01-15T14:15:35;4.50;99.90
54168;DHT22;68429;50.958;3.592;2024-01-15T14:18:00;4.50;99.90
54168;DHT22;68429;50.958;3.592;2024-01-15T14:20:26;4.10;99.90
54168;DHT22;68429;50.958;3.592;2024-01-15T14:22:53;3.80;99.90
54168;DHT22;68429;50.958;3.592;2024-01-15T14:25:22;3.80;99.90
54168;DHT22;68429;50.958;3.592;2024-01-15T14:27:49;3.90;99.90
54168;DHT22;68429;50.958;3.592;2024-01-15T14:30:16;4.30;99.90
54168;DHT22;68429;50.958;3.592;2024-01-15T14:32:42;5.00;99.90
54168;DHT22;68429;50.958;3.592;2024-01-15T14:35:08;4.90;99.90
54168;DHT22;68429;50.958;3.592;2024-01-15T14:37:36;4.50;99.90
54168;DHT22;68429;50.958;3.592;2024-01-15T14:40:02;4.40;99.90
54168;DHT22;68429;50.958;3.592;2024-01-15T14:42:29;4.60;99.90
54168;DHT22;68429;50.958;3.592;2024-01-15T14:44:55;4.40;99.90
54168;DHT22;68429;50.958;3.592;2024-01-15T14:47:20;4.60;99.90
54168;DHT22;68429;50.958;3.592;2024-01-15T14:49:49;4.50;99.90
54168;DHT22;68429;50.958;3.592;2024-01-15T14:52:15;4.50;99.90
54168;DHT22;68429;50.958;3.592;2024-01-15T14:54:41;4.50;99.90
54168;DHT22;68429;50.958;3.592;2024-01-15T14:57:07;4.80;99.90
54168;DHT22;68429;50.958;3.592;2024-01-15T14:59:32;5.20;99.90
54168;DHT22;68429;50.958;3.592;2024-01-15T15:01:58;4.90;99.90
54168;DHT22;68429;50.958;3.592;2024-01-15T15:04:24;4.80;99.90
54168;DHT22;68429;50.958;3.592;2024-01-15T15:06:49;4.90;99.90
54168;DHT22;68429;50.958;3.592;2024-01-15T15:09:15;4.70;99.90
54168;DHT22;68429;50.958;3.592;2024-01-15T15:11:41;4.60;99.90
54168;DHT22;68429;50.958;3.592;2024-01-15T15:14:07;4.30;99.90
54168;DHT22;68429;50.958;3.592;2024-01-15T15:16:32;4.20;99.90
54168;DHT22;68429;50.958;3.592;2024-01-15T15:18:58;4.10;99.90
54168;DHT22;68429;50.958;3.592;2024-01-15T15:21:24;4.20;99.90
54168;DHT22;68429;50.958;3.592;2024-01-15T15:23:49;3.90;99.90
54168;DHT22;68429;50.958;3.592;2024-01-15T15:26:15;3.90;99.90
54168;DHT22;68429;50.958;3.592;2024-01-15T15:28:41;3.90;99.90
54168;DHT22;68429;50.958;3.592;2024-01-15T15:31:07;3.90;99.90
54168;DHT22;68429;50.958;3.592;2024-01-15T15:33:34;3.90;99.90
54168;DHT22;68429;50.958;3.592;2024-01-15T15:36:00;3.60;99.90
54168;DHT22;68429;50.958;3.592;2024-01-15T15:38:33;3.60;99.90
54168;DHT22;68429;50.958;3.592;2024-01-15T15:40:59;3.60;99.90
54168;DHT22;68429;50.958;3.592;2024-01-15T15:43:28;3.50;99.90
54168;DHT22;68429;50.958;3.592;2024-01-15T15:45:53;3.40;99.90
54168;DHT22;68429;50.958;3.592;2024-01-15T15:48:19;3.40;99.90
54168;DHT22;68429;50.958;3.592;2024-01-15T15:50:45;3.40;99.90